Flight Track Log - Related Links

Times and Time Zones

All times are in EDT time to prevent confusion due to time zone crossing. See the AWE874 flight status page for this flight to view local times or setup timezone preferences in your user account.

Time Position Orientation Groundspeed Altitude Reporting Facility
EDT Latitude Longitude Course Direction KTS MPH feet Rate Location/Type
Sat 07:13:31 AM 35.8944 -78.7792 263° West 148 170 1,400  Level Washington Center
Sat 07:13:49 AM 35.9053 -78.7719 28° Northeast 147 169 2,100 1,823 Climbing Washington Center
Sat 07:14:50 AM 35.9575 -78.7689 North 232 267 3,800 2,016 Climbing Washington Center
Sat 07:15:51 AM 35.9592 -78.8639 271° West 305 351 6,200 2,752 Climbing Washington Center
Sat 07:16:00 AM 35.8480 -79.1372 263° West  Level FlightAware Approximate
Sat 07:17:00 AM 35.8362 -79.2550 263° West  Level FlightAware Approximate
Sat 07:17:03 AM 35.9392 -78.9811 258° West 313 360 9,900  Level Washington Center
Sat 07:18:00 AM 35.8244 -79.3728 263° West  Level FlightAware Approximate
Sat 07:18:00 AM 35.9172 -79.0878 256° West 313 360 11,300  Level Washington Center
Sat 07:21:01 AM 35.8397 -79.4714 256° West 418 481 16,000 1,170 Climbing Atlanta Center
Sat 07:22:01 AM 35.8156 -79.6033 257° West 407 468 16,000  Level Atlanta Center
Sat 07:23:01 AM 35.8119 -79.7394 268° West 386 444 16,000  Level Atlanta Center
Sat 07:24:01 AM 35.8103 -79.8725 269° West 381 438 16,000 -150 Level Atlanta Center
Sat 07:25:01 AM 35.8119 -79.9850 271° West 381 438 15,700 -653 Descending Atlanta Center
Sat 07:25:42 AM 35.8131 -80.0875 271° West 364 419 14,900 -900 Descending Atlanta Center
Sat 07:26:01 AM 35.8117 -80.1081 265° West 376 433 14,800 -1,200 Descending Atlanta Center
Sat 07:26:37 AM 35.8122 -80.1900 271° West 322 371 13,800 -1,300 Descending Atlanta Center
Sat 07:27:01 AM 35.8111 -80.2208 267° West 357 411 13,500 -800 Descending Atlanta Center
Sat 07:27:37 AM 35.8114 -80.2975 270° West 314 361 13,000 -500 Descending Atlanta Center
Sat 07:28:01 AM 35.8106 -80.3411 269° West 338 389 13,000  Level Atlanta Center
Sat 07:28:38 AM 35.8089 -80.4181 268° West 373 429 13,000 -100 Level Atlanta Center
Sat 07:29:01 AM 35.7872 -80.4625 239° Southwest 353 406 12,900 -885 Descending Atlanta Center
Sat 07:29:39 AM 35.7361 -80.5006 211° Southwest 364 419 12,100 -1,400 Descending Atlanta Center
Sat 07:30:01 AM 35.7036 -80.5300 216° Southwest 328 377 11,500 -1,100 Descending Atlanta Center
Sat 07:30:39 AM 35.6547 -80.5706 214° Southwest 351 404 11,000 -500 Descending Atlanta Center
Sat 07:31:01 AM 35.6219 -80.5950 211° Southwest 350 403 11,000  Level Atlanta Center
Sat 07:31:40 AM 35.5669 -80.6431 215° Southwest 347 399 11,000  Level Atlanta Center
Sat 07:32:01 AM 35.5425 -80.6619 212° Southwest 355 409 11,000  Level Atlanta Center
Sat 07:32:41 AM 35.4875 -80.7103 216° Southwest 347 399 11,000  Level Atlanta Center
Sat 07:33:01 AM 35.4689 -80.7211 205° Southwest 355 409 11,000 -91 Level Atlanta Center
Sat 07:33:47 AM 35.4017 -80.7775 214° Southwest 349 402 10,900 -449 Descending Atlanta Center
Sat 07:34:48 AM 35.3281 -80.8364 213° Southwest 310 357 10,200 -984 Descending Atlanta Center
Sat 07:35:49 AM 35.2531 -80.8367 180° South 254 292 8,900 -1,686 Descending Atlanta Center
Sat 07:36:49 AM 35.1797 -80.8319 177° South 261 300 6,800 -2,139 Descending Atlanta Center
Sat 07:37:44 AM 35.1128 -80.8269 177° South 255 293 4,800 -1,448 Descending Atlanta Center
Sat 07:38:45 AM 35.0439 -80.8219 177° South 244 281 4,000 -393 Descending Atlanta Center
Sat 07:39:46 AM 34.9881 -80.8444 198° South 237 273 4,000  Level Atlanta Center
Sat 07:40:47 AM 35.0211 -80.9092 302° West 209 241 4,000 -422 Level Atlanta Center
Sat 07:41:54 AM 35.0736 -80.9247 346° North 178 205 3,100 -806 Descending Atlanta Center

Login

Don't have an account? Register now (free) for customized features, flight alerts, and more!